Metar z połowy godziny Komunikat METAR ze strony awiacja.imgw.pl Metar G30 EPPW METAR EPPW 180830Z 34004KT 5000 BR BKN080 M00/M04 Q1031 RMK M004 077 7/7=